sensor_id;sensor_type;location;lat;lon;timestamp;P1;durP1;ratioP1;P2;durP2;ratioP2
3307;SDS011;1666;48.898;9.182;2022-09-23T00:00:20;6.10;;;4.70;;
3307;SDS011;1666;48.898;9.182;2022-09-23T00:02:49;5.47;;;4.40;;
3307;SDS011;1666;48.898;9.182;2022-09-23T00:05:22;6.40;;;4.32;;
3307;SDS011;1666;48.898;9.182;2022-09-23T00:07:52;5.72;;;4.30;;
3307;SDS011;1666;48.898;9.182;2022-09-23T00:10:22;6.13;;;4.40;;
3307;SDS011;1666;48.898;9.182;2022-09-23T00:12:53;5.97;;;5.07;;
3307;SDS011;1666;48.898;9.182;2022-09-23T00:15:23;6.60;;;4.63;;
3307;SDS011;1666;48.898;9.182;2022-09-23T00:17:56;4.70;;;4.20;;
3307;SDS011;1666;48.898;9.182;2022-09-23T00:20:28;6.68;;;4.57;;
3307;SDS011;1666;48.898;9.182;2022-09-23T00:22:58;5.20;;;4.35;;
3307;SDS011;1666;48.898;9.182;2022-09-23T00:25:28;4.22;;;3.75;;
3307;SDS011;1666;48.898;9.182;2022-09-23T00:27:58;6.05;;;4.00;;
3307;SDS011;1666;48.898;9.182;2022-09-23T00:30:28;4.55;;;4.15;;
3307;SDS011;1666;48.898;9.182;2022-09-23T00:32:58;4.60;;;4.18;;
3307;SDS011;1666;48.898;9.182;2022-09-23T00:35:30;4.82;;;4.15;;
3307;SDS011;1666;48.898;9.182;2022-09-23T00:38:00;5.95;;;4.35;;
3307;SDS011;1666;48.898;9.182;2022-09-23T00:40:30;5.82;;;4.53;;
3307;SDS011;1666;48.898;9.182;2022-09-23T00:43:01;5.88;;;4.78;;
3307;SDS011;1666;48.898;9.182;2022-09-23T00:45:31;6.32;;;4.28;;
3307;SDS011;1666;48.898;9.182;2022-09-23T00:48:01;6.47;;;4.43;;
3307;SDS011;1666;48.898;9.182;2022-09-23T00:50:36;5.45;;;4.32;;
3307;SDS011;1666;48.898;9.182;2022-09-23T00:53:09;7.00;;;5.10;;
3307;SDS011;1666;48.898;9.182;2022-09-23T00:55:42;5.85;;;4.47;;
3307;SDS011;1666;48.898;9.182;2022-09-23T00:58:19;5.63;;;4.85;;
3307;SDS011;1666;48.898;9.182;2022-09-23T01:00:53;5.43;;;4.80;;
3307;SDS011;1666;48.898;9.182;2022-09-23T01:03:25;6.72;;;4.85;;
3307;SDS011;1666;48.898;9.182;2022-09-23T01:05:58;6.47;;;4.72;;
3307;SDS011;1666;48.898;9.182;2022-09-23T01:08:28;6.88;;;4.70;;
3307;SDS011;1666;48.898;9.182;2022-09-23T01:10:59;8.55;;;5.25;;
3307;SDS011;1666;48.898;9.182;2022-09-23T01:13:41;7.35;;;5.80;;
3307;SDS011;1666;48.898;9.182;2022-09-23T01:16:21;9.88;;;5.97;;
3307;SDS011;1666;48.898;9.182;2022-09-23T01:19:00;6.68;;;5.25;;
3307;SDS011;1666;48.898;9.182;2022-09-23T01:21:41;6.72;;;5.68;;
3307;SDS011;1666;48.898;9.182;2022-09-23T01:24:23;10.25;;;6.93;;
3307;SDS011;1666;48.898;9.182;2022-09-23T01:27:22;8.35;;;6.68;;
3307;SDS011;1666;48.898;9.182;2022-09-23T01:30:08;9.48;;;7.43;;
3307;SDS011;1666;48.898;9.182;2022-09-23T01:32:52;8.80;;;6.85;;
3307;SDS011;1666;48.898;9.182;2022-09-23T01:35:48;13.20;;;8.18;;
3307;SDS011;1666;48.898;9.182;2022-09-23T01:38:31;9.85;;;7.55;;
3307;SDS011;1666;48.898;9.182;2022-09-23T01:41:09;8.88;;;7.82;;
3307;SDS011;1666;48.898;9.182;2022-09-23T01:43:46;10.00;;;7.72;;
3307;SDS011;1666;48.898;9.182;2022-09-23T01:46:22;11.68;;;8.63;;
3307;SDS011;1666;48.898;9.182;2022-09-23T01:48:59;12.48;;;9.07;;
3307;SDS011;1666;48.898;9.182;2022-09-23T01:51:36;12.93;;;8.50;;
3307;SDS011;1666;48.898;9.182;2022-09-23T01:54:11;9.90;;;7.82;;
3307;SDS011;1666;48.898;9.182;2022-09-23T01:56:45;9.93;;;7.43;;
3307;SDS011;1666;48.898;9.182;2022-09-23T01:59:20;10.00;;;8.07;;
3307;SDS011;1666;48.898;9.182;2022-09-23T02:01:55;14.18;;;9.10;;
3307;SDS011;1666;48.898;9.182;2022-09-23T02:04:33;11.75;;;8.20;;
3307;SDS011;1666;48.898;9.182;2022-09-23T02:07:11;12.13;;;8.93;;
3307;SDS011;1666;48.898;9.182;2022-09-23T02:09:46;10.10;;;8.57;;
3307;SDS011;1666;48.898;9.182;2022-09-23T02:12:22;13.55;;;9.68;;
3307;SDS011;1666;48.898;9.182;2022-09-23T02:14:57;12.75;;;9.93;;
3307;SDS011;1666;48.898;9.182;2022-09-23T02:17:31;16.83;;;10.25;;
3307;SDS011;1666;48.898;9.182;2022-09-23T02:20:07;10.95;;;9.20;;
3307;SDS011;1666;48.898;9.182;2022-09-23T02:22:41;15.93;;;10.57;;
3307;SDS011;1666;48.898;9.182;2022-09-23T02:25:20;14.50;;;10.10;;
3307;SDS011;1666;48.898;9.182;2022-09-23T02:27:55;12.40;;;10.03;;
3307;SDS011;1666;48.898;9.182;2022-09-23T02:30:30;17.70;;;10.15;;
3307;SDS011;1666;48.898;9.182;2022-09-23T02:33:05;17.75;;;10.55;;
3307;SDS011;1666;48.898;9.182;2022-09-23T02:35:42;12.30;;;10.27;;
3307;SDS011;1666;48.898;9.182;2022-09-23T02:38:22;14.18;;;9.77;;
3307;SDS011;1666;48.898;9.182;2022-09-23T02:41:02;15.27;;;9.57;;
3307;SDS011;1666;48.898;9.182;2022-09-23T02:43:36;13.77;;;10.05;;
3307;SDS011;1666;48.898;9.182;2022-09-23T02:46:11;13.45;;;9.40;;
3307;SDS011;1666;48.898;9.182;2022-09-23T02:48:42;12.23;;;9.40;;
3307;SDS011;1666;48.898;9.182;2022-09-23T02:51:16;12.13;;;9.05;;
3307;SDS011;1666;48.898;9.182;2022-09-23T02:53:47;10.90;;;8.75;;
3307;SDS011;1666;48.898;9.182;2022-09-23T02:56:18;10.88;;;9.20;;
3307;SDS011;1666;48.898;9.182;2022-09-23T02:58:49;11.65;;;8.65;;
3307;SDS011;1666;48.898;9.182;2022-09-23T03:01:24;13.45;;;8.98;;
3307;SDS011;1666;48.898;9.182;2022-09-23T03:04:07;10.68;;;8.10;;
3307;SDS011;1666;48.898;9.182;2022-09-23T03:06:46;11.10;;;8.65;;
3307;SDS011;1666;48.898;9.182;2022-09-23T03:09:26;11.95;;;8.13;;
3307;SDS011;1666;48.898;9.182;2022-09-23T03:12:03;9.82;;;8.07;;
3307;SDS011;1666;48.898;9.182;2022-09-23T03:14:40;11.32;;;8.48;;
3307;SDS011;1666;48.898;9.182;2022-09-23T03:17:19;9.60;;;7.90;;
3307;SDS011;1666;48.898;9.182;2022-09-23T03:19:56;12.43;;;7.63;;
3307;SDS011;1666;48.898;9.182;2022-09-23T03:25:05;9.20;;;7.55;;
3307;SDS011;1666;48.898;9.182;2022-09-23T03:27:39;10.60;;;8.35;;
3307;SDS011;1666;48.898;9.182;2022-09-23T03:30:11;10.00;;;7.45;;
3307;SDS011;1666;48.898;9.182;2022-09-23T03:32:43;9.63;;;8.07;;
3307;SDS011;1666;48.898;9.182;2022-09-23T03:35:15;9.35;;;7.93;;
3307;SDS011;1666;48.898;9.182;2022-09-23T03:37:48;10.10;;;7.50;;
3307;SDS011;1666;48.898;9.182;2022-09-23T03:40:24;10.63;;;7.80;;
3307;SDS011;1666;48.898;9.182;2022-09-23T03:45:30;12.63;;;7.93;;
3307;SDS011;1666;48.898;9.182;2022-09-23T03:48:02;11.50;;;7.85;;
3307;SDS011;1666;48.898;9.182;2022-09-23T03:50:32;9.68;;;7.93;;
3307;SDS011;1666;48.898;9.182;2022-09-23T03:53:05;9.65;;;7.18;;
3307;SDS011;1666;48.898;9.182;2022-09-23T03:55:35;9.55;;;8.05;;
3307;SDS011;1666;48.898;9.182;2022-09-23T03:58:05;9.57;;;7.63;;
3307;SDS011;1666;48.898;9.182;2022-09-23T04:00:36;10.40;;;7.70;;
3307;SDS011;1666;48.898;9.182;2022-09-23T04:03:06;11.52;;;8.02;;
3307;SDS011;1666;48.898;9.182;2022-09-23T04:05:37;10.55;;;8.25;;
3307;SDS011;1666;48.898;9.182;2022-09-23T04:08:10;9.20;;;7.43;;
3307;SDS011;1666;48.898;9.182;2022-09-23T04:10:40;11.80;;;8.60;;
3307;SDS011;1666;48.898;9.182;2022-09-23T04:13:12;10.40;;;7.82;;
3307;SDS011;1666;48.898;9.182;2022-09-23T04:15:42;10.90;;;7.88;;
3307;SDS011;1666;48.898;9.182;2022-09-23T04:18:12;10.98;;;8.35;;
3307;SDS011;1666;48.898;9.182;2022-09-23T04:20:41;10.13;;;7.85;;
3307;SDS011;1666;48.898;9.182;2022-09-23T04:23:14;12.20;;;7.40;;
3307;SDS011;1666;48.898;9.182;2022-09-23T04:25:44;9.82;;;7.20;;
3307;SDS011;1666;48.898;9.182;2022-09-23T04:28:14;10.68;;;7.18;;
3307;SDS011;1666;48.898;9.182;2022-09-23T04:30:44;10.00;;;7.35;;
3307;SDS011;1666;48.898;9.182;2022-09-23T04:33:14;10.52;;;7.70;;
3307;SDS011;1666;48.898;9.182;2022-09-23T04:35:48;10.70;;;7.28;;
3307;SDS011;1666;48.898;9.182;2022-09-23T04:38:21;8.95;;;7.32;;
3307;SDS011;1666;48.898;9.182;2022-09-23T04:40:51;11.30;;;7.22;;
3307;SDS011;1666;48.898;9.182;2022-09-23T04:43:20;8.98;;;6.95;;
3307;SDS011;1666;48.898;9.182;2022-09-23T04:45:57;8.90;;;7.10;;
3307;SDS011;1666;48.898;9.182;2022-09-23T04:48:28;9.35;;;6.82;;
3307;SDS011;1666;48.898;9.182;2022-09-23T04:51:00;9.13;;;6.82;;
3307;SDS011;1666;48.898;9.182;2022-09-23T04:53:34;9.95;;;7.85;;
3307;SDS011;1666;48.898;9.182;2022-09-23T04:56:06;10.88;;;7.15;;
3307;SDS011;1666;48.898;9.182;2022-09-23T04:58:37;11.38;;;7.32;;
3307;SDS011;1666;48.898;9.182;2022-09-23T05:01:09;10.77;;;7.90;;
3307;SDS011;1666;48.898;9.182;2022-09-23T05:03:40;10.93;;;7.63;;
3307;SDS011;1666;48.898;9.182;2022-09-23T05:06:11;9.73;;;7.05;;
3307;SDS011;1666;48.898;9.182;2022-09-23T05:08:48;8.88;;;6.95;;
3307;SDS011;1666;48.898;9.182;2022-09-23T05:11:19;10.20;;;7.68;;
3307;SDS011;1666;48.898;9.182;2022-09-23T05:13:51;10.18;;;7.45;;
3307;SDS011;1666;48.898;9.182;2022-09-23T05:16:22;8.60;;;7.05;;
3307;SDS011;1666;48.898;9.182;2022-09-23T05:18:53;10.18;;;7.57;;
3307;SDS011;1666;48.898;9.182;2022-09-23T05:21:23;10.93;;;8.00;;
3307;SDS011;1666;48.898;9.182;2022-09-23T05:23:58;12.48;;;8.07;;
3307;SDS011;1666;48.898;9.182;2022-09-23T05:26:28;12.35;;;8.30;;
3307;SDS011;1666;48.898;9.182;2022-09-23T05:28:59;10.52;;;8.13;;
3307;SDS011;1666;48.898;9.182;2022-09-23T05:31:29;14.38;;;9.07;;
3307;SDS011;1666;48.898;9.182;2022-09-23T05:34:00;20.83;;;9.68;;
3307;SDS011;1666;48.898;9.182;2022-09-23T05:36:31;14.18;;;8.85;;
3307;SDS011;1666;48.898;9.182;2022-09-23T05:39:07;14.17;;;9.03;;
3307;SDS011;1666;48.898;9.182;2022-09-23T05:41:36;12.77;;;7.82;;
3307;SDS011;1666;48.898;9.182;2022-09-23T05:44:08;11.02;;;7.65;;
3307;SDS011;1666;48.898;9.182;2022-09-23T05:46:38;13.98;;;8.35;;
3307;SDS011;1666;48.898;9.182;2022-09-23T05:49:08;16.40;;;7.90;;
3307;SDS011;1666;48.898;9.182;2022-09-23T05:51:38;13.27;;;8.10;;
3307;SDS011;1666;48.898;9.182;2022-09-23T05:54:10;9.15;;;7.32;;
3307;SDS011;1666;48.898;9.182;2022-09-23T05:56:40;18.65;;;8.10;;
3307;SDS011;1666;48.898;9.182;2022-09-23T05:59:10;9.68;;;7.70;;
3307;SDS011;1666;48.898;9.182;2022-09-23T06:01:40;14.18;;;7.78;;
3307;SDS011;1666;48.898;9.182;2022-09-23T06:04:12;12.43;;;6.53;;
3307;SDS011;1666;48.898;9.182;2022-09-23T06:06:42;8.88;;;7.50;;
3307;SDS011;1666;48.898;9.182;2022-09-23T06:09:17;10.32;;;7.47;;
3307;SDS011;1666;48.898;9.182;2022-09-23T06:11:46;10.38;;;6.72;;
3307;SDS011;1666;48.898;9.182;2022-09-23T06:14:16;9.65;;;7.68;;
3307;SDS011;1666;48.898;9.182;2022-09-23T06:16:46;9.98;;;7.38;;
3307;SDS011;1666;48.898;9.182;2022-09-23T06:19:16;12.02;;;7.32;;
3307;SDS011;1666;48.898;9.182;2022-09-23T06:21:47;8.88;;;6.32;;
3307;SDS011;1666;48.898;9.182;2022-09-23T06:24:20;17.35;;;7.35;;
3307;SDS011;1666;48.898;9.182;2022-09-23T06:26:56;10.10;;;7.00;;
3307;SDS011;1666;48.898;9.182;2022-09-23T06:29:26;10.77;;;7.00;;
3307;SDS011;1666;48.898;9.182;2022-09-23T06:31:57;8.55;;;6.65;;
3307;SDS011;1666;48.898;9.182;2022-09-23T06:34:27;13.05;;;7.78;;
3307;SDS011;1666;48.898;9.182;2022-09-23T06:37:09;9.43;;;6.05;;
3307;SDS011;1666;48.898;9.182;2022-09-23T06:39:48;10.43;;;6.53;;
3307;SDS011;1666;48.898;9.182;2022-09-23T06:42:20;7.43;;;5.85;;
3307;SDS011;1666;48.898;9.182;2022-09-23T06:44:49;7.85;;;6.28;;
3307;SDS011;1666;48.898;9.182;2022-09-23T06:47:19;11.65;;;6.95;;
3307;SDS011;1666;48.898;9.182;2022-09-23T06:49:49;7.95;;;6.00;;
3307;SDS011;1666;48.898;9.182;2022-09-23T06:52:19;10.25;;;6.65;;
3307;SDS011;1666;48.898;9.182;2022-09-23T06:54:51;7.95;;;6.20;;
3307;SDS011;1666;48.898;9.182;2022-09-23T06:57:22;7.45;;;5.75;;
3307;SDS011;1666;48.898;9.182;2022-09-23T06:59:52;7.97;;;6.15;;
3307;SDS011;1666;48.898;9.182;2022-09-23T07:02:23;9.52;;;6.07;;
3307;SDS011;1666;48.898;9.182;2022-09-23T07:04:53;8.68;;;6.68;;
3307;SDS011;1666;48.898;9.182;2022-09-23T07:07:24;8.35;;;6.18;;
3307;SDS011;1666;48.898;9.182;2022-09-23T07:09:57;8.50;;;5.65;;
3307;SDS011;1666;48.898;9.182;2022-09-23T07:12:27;12.45;;;6.75;;
3307;SDS011;1666;48.898;9.182;2022-09-23T07:14:56;8.90;;;6.57;;
3307;SDS011;1666;48.898;9.182;2022-09-23T07:17:26;11.98;;;8.65;;
3307;SDS011;1666;48.898;9.182;2022-09-23T07:19:56;11.13;;;6.47;;
3307;SDS011;1666;48.898;9.182;2022-09-23T07:22:26;11.23;;;6.35;;
3307;SDS011;1666;48.898;9.182;2022-09-23T07:24:58;7.88;;;5.80;;
3307;SDS011;1666;48.898;9.182;2022-09-23T07:27:28;8.70;;;6.15;;
3307;SDS011;1666;48.898;9.182;2022-09-23T07:29:58;10.60;;;6.22;;
3307;SDS011;1666;48.898;9.182;2022-09-23T07:32:28;10.27;;;6.47;;
3307;SDS011;1666;48.898;9.182;2022-09-23T07:35:10;21.80;;;14.80;;
3307;SDS011;1666;48.898;9.182;2022-09-23T07:37:39;10.63;;;6.57;;
3307;SDS011;1666;48.898;9.182;2022-09-23T07:40:12;9.98;;;5.78;;
3307;SDS011;1666;48.898;9.182;2022-09-23T07:42:42;7.35;;;6.00;;
3307;SDS011;1666;48.898;9.182;2022-09-23T07:45:13;7.70;;;5.68;;
3307;SDS011;1666;48.898;9.182;2022-09-23T07:47:43;9.70;;;6.00;;
3307;SDS011;1666;48.898;9.182;2022-09-23T07:50:14;8.70;;;5.65;;
3307;SDS011;1666;48.898;9.182;2022-09-23T07:52:44;7.90;;;5.93;;
3307;SDS011;1666;48.898;9.182;2022-09-23T07:55:17;14.32;;;8.82;;
3307;SDS011;1666;48.898;9.182;2022-09-23T07:57:47;10.48;;;6.35;;
3307;SDS011;1666;48.898;9.182;2022-09-23T08:00:17;10.95;;;5.55;;
3307;SDS011;1666;48.898;9.182;2022-09-23T08:02:47;7.72;;;5.70;;
3307;SDS011;1666;48.898;9.182;2022-09-23T08:05:18;8.70;;;5.25;;
3307;SDS011;1666;48.898;9.182;2022-09-23T08:07:48;12.93;;;5.40;;
3307;SDS011;1666;48.898;9.182;2022-09-23T08:10:20;5.97;;;5.22;;
3307;SDS011;1666;48.898;9.182;2022-09-23T08:12:56;5.97;;;5.05;;
3307;SDS011;1666;48.898;9.182;2022-09-23T08:15:27;6.15;;;5.18;;
3307;SDS011;1666;48.898;9.182;2022-09-23T08:17:58;6.18;;;5.07;;
3307;SDS011;1666;48.898;9.182;2022-09-23T08:20:28;10.00;;;4.88;;
3307;SDS011;1666;48.898;9.182;2022-09-23T08:23:14;7.43;;;4.70;;
3307;SDS011;1666;48.898;9.182;2022-09-23T08:25:54;10.68;;;4.68;;
3307;SDS011;1666;48.898;9.182;2022-09-23T08:28:25;6.05;;;4.93;;
3307;SDS011;1666;48.898;9.182;2022-09-23T08:30:59;6.65;;;5.00;;
3307;SDS011;1666;48.898;9.182;2022-09-23T08:33:29;7.35;;;4.65;;
3307;SDS011;1666;48.898;9.182;2022-09-23T08:36:00;7.25;;;4.50;;
3307;SDS011;1666;48.898;9.182;2022-09-23T08:38:30;5.30;;;4.80;;
3307;SDS011;1666;48.898;9.182;2022-09-23T08:41:06;5.40;;;4.30;;
3307;SDS011;1666;48.898;9.182;2022-09-23T08:43:43;15.38;;;12.73;;
3307;SDS011;1666;48.898;9.182;2022-09-23T08:46:18;7.72;;;4.18;;
3307;SDS011;1666;48.898;9.182;2022-09-23T08:48:51;5.95;;;4.50;;
3307;SDS011;1666;48.898;9.182;2022-09-23T08:51:24;5.90;;;4.32;;
3307;SDS011;1666;48.898;9.182;2022-09-23T08:53:59;5.07;;;3.75;;
3307;SDS011;1666;48.898;9.182;2022-09-23T08:56:32;11.30;;;3.65;;
3307;SDS011;1666;48.898;9.182;2022-09-23T08:59:05;7.07;;;4.22;;
3307;SDS011;1666;48.898;9.182;2022-09-23T09:01:40;7.43;;;3.60;;
3307;SDS011;1666;48.898;9.182;2022-09-23T09:04:14;4.40;;;3.88;;
3307;SDS011;1666;48.898;9.182;2022-09-23T09:06:47;5.32;;;3.53;;
3307;SDS011;1666;48.898;9.182;2022-09-23T09:09:38;6.95;;;4.50;;
3307;SDS011;1666;48.898;9.182;2022-09-23T09:12:16;8.48;;;4.50;;
3307;SDS011;1666;48.898;9.182;2022-09-23T09:14:49;4.85;;;3.70;;
3307;SDS011;1666;48.898;9.182;2022-09-23T09:17:27;4.20;;;3.80;;
3307;SDS011;1666;48.898;9.182;2022-09-23T09:20:06;5.05;;;3.97;;
3307;SDS011;1666;48.898;9.182;2022-09-23T09:22:52;6.03;;;4.20;;
3307;SDS011;1666;48.898;9.182;2022-09-23T09:25:35;9.48;;;3.67;;
3307;SDS011;1666;48.898;9.182;2022-09-23T09:28:12;8.27;;;3.90;;
3307;SDS011;1666;48.898;9.182;2022-09-23T09:30:49;8.75;;;4.32;;
3307;SDS011;1666;48.898;9.182;2022-09-23T09:33:25;5.22;;;3.85;;
3307;SDS011;1666;48.898;9.182;2022-09-23T09:36:04;4.75;;;4.00;;
3307;SDS011;1666;48.898;9.182;2022-09-23T09:38:38;3.88;;;3.50;;
3307;SDS011;1666;48.898;9.182;2022-09-23T09:41:10;5.72;;;3.67;;
3307;SDS011;1666;48.898;9.182;2022-09-23T09:43:46;6.63;;;4.18;;
3307;SDS011;1666;48.898;9.182;2022-09-23T09:46:23;10.98;;;7.60;;
3307;SDS011;1666;48.898;9.182;2022-09-23T09:49:17;9.18;;;4.82;;
3307;SDS011;1666;48.898;9.182;2022-09-23T09:54:48;5.53;;;4.13;;
3307;SDS011;1666;48.898;9.182;2022-09-23T09:57:31;6.35;;;4.03;;
3307;SDS011;1666;48.898;9.182;2022-09-23T10:03:02;7.45;;;4.18;;
3307;SDS011;1666;48.898;9.182;2022-09-23T10:05:48;6.38;;;4.32;;
3307;SDS011;1666;48.898;9.182;2022-09-23T10:08:24;5.40;;;4.05;;
3307;SDS011;1666;48.898;9.182;2022-09-23T10:11:01;6.00;;;4.30;;
3307;SDS011;1666;48.898;9.182;2022-09-23T10:13:33;9.57;;;4.43;;
3307;SDS011;1666;48.898;9.182;2022-09-23T10:16:06;6.53;;;4.10;;
3307;SDS011;1666;48.898;9.182;2022-09-23T10:18:37;5.93;;;4.10;;
3307;SDS011;1666;48.898;9.182;2022-09-23T10:21:19;6.50;;;4.50;;
3307;SDS011;1666;48.898;9.182;2022-09-23T10:23:54;6.25;;;4.68;;
3307;SDS011;1666;48.898;9.182;2022-09-23T10:26:27;7.87;;;4.50;;
3307;SDS011;1666;48.898;9.182;2022-09-23T10:29:00;6.55;;;4.65;;
3307;SDS011;1666;48.898;9.182;2022-09-23T10:31:34;7.65;;;4.53;;
3307;SDS011;1666;48.898;9.182;2022-09-23T10:34:17;6.72;;;3.90;;
3307;SDS011;1666;48.898;9.182;2022-09-23T10:36:53;10.38;;;4.30;;
3307;SDS011;1666;48.898;9.182;2022-09-23T10:39:23;6.60;;;4.13;;
3307;SDS011;1666;48.898;9.182;2022-09-23T10:42:11;11.00;;;3.92;;
3307;SDS011;1666;48.898;9.182;2022-09-23T10:45:04;5.32;;;4.30;;
3307;SDS011;1666;48.898;9.182;2022-09-23T10:48:02;7.43;;;4.28;;
3307;SDS011;1666;48.898;9.182;2022-09-23T10:50:38;15.15;;;4.60;;
3307;SDS011;1666;48.898;9.182;2022-09-23T10:53:14;7.53;;;3.92;;
3307;SDS011;1666;48.898;9.182;2022-09-23T10:55:51;5.18;;;4.07;;
3307;SDS011;1666;48.898;9.182;2022-09-23T10:58:54;7.10;;;4.40;;
3307;SDS011;1666;48.898;9.182;2022-09-23T11:01:47;6.35;;;4.32;;
3307;SDS011;1666;48.898;9.182;2022-09-23T11:07:34;10.20;;;4.40;;
3307;SDS011;1666;48.898;9.182;2022-09-23T11:10:18;7.43;;;4.20;;
3307;SDS011;1666;48.898;9.182;2022-09-23T11:13:18;8.07;;;4.30;;
3307;SDS011;1666;48.898;9.182;2022-09-23T11:15:56;10.00;;;4.03;;
3307;SDS011;1666;48.898;9.182;2022-09-23T11:18:40;6.35;;;3.53;;
3307;SDS011;1666;48.898;9.182;2022-09-23T11:21:30;4.03;;;3.20;;
3307;SDS011;1666;48.898;9.182;2022-09-23T11:27:29;5.85;;;3.75;;
3307;SDS011;1666;48.898;9.182;2022-09-23T11:30:11;5.25;;;4.22;;
3307;SDS011;1666;48.898;9.182;2022-09-23T11:32:53;4.82;;;3.65;;
3307;SDS011;1666;48.898;9.182;2022-09-23T11:35:40;7.13;;;3.50;;
3307;SDS011;1666;48.898;9.182;2022-09-23T11:38:16;4.30;;;3.72;;
3307;SDS011;1666;48.898;9.182;2022-09-23T11:40:54;6.25;;;3.72;;
3307;SDS011;1666;48.898;9.182;2022-09-23T11:43:28;5.40;;;3.85;;
3307;SDS011;1666;48.898;9.182;2022-09-23T11:46:05;5.93;;;3.72;;
3307;SDS011;1666;48.898;9.182;2022-09-23T11:48:40;6.15;;;3.88;;
3307;SDS011;1666;48.898;9.182;2022-09-23T11:51:15;5.65;;;3.63;;
3307;SDS011;1666;48.898;9.182;2022-09-23T11:53:52;4.57;;;3.42;;
3307;SDS011;1666;48.898;9.182;2022-09-23T11:56:30;4.75;;;3.50;;
3307;SDS011;1666;48.898;9.182;2022-09-23T11:59:11;4.80;;;3.35;;
3307;SDS011;1666;48.898;9.182;2022-09-23T12:02:02;6.43;;;3.55;;
3307;SDS011;1666;48.898;9.182;2022-09-23T12:04:47;3.63;;;3.10;;
3307;SDS011;1666;48.898;9.182;2022-09-23T12:07:28;5.50;;;3.13;;
3307;SDS011;1666;48.898;9.182;2022-09-23T12:10:08;5.03;;;3.30;;
3307;SDS011;1666;48.898;9.182;2022-09-23T12:12:45;6.45;;;3.97;;
3307;SDS011;1666;48.898;9.182;2022-09-23T12:15:26;4.90;;;3.58;;
3307;SDS011;1666;48.898;9.182;2022-09-23T12:18:07;5.75;;;4.15;;
3307;SDS011;1666;48.898;9.182;2022-09-23T12:21:14;5.10;;;3.70;;
3307;SDS011;1666;48.898;9.182;2022-09-23T12:24:23;6.82;;;3.85;;
3307;SDS011;1666;48.898;9.182;2022-09-23T12:27:06;6.18;;;3.20;;
3307;SDS011;1666;48.898;9.182;2022-09-23T12:29:42;5.22;;;3.95;;
3307;SDS011;1666;48.898;9.182;2022-09-23T12:32:15;5.35;;;4.10;;
3307;SDS011;1666;48.898;9.182;2022-09-23T12:34:47;5.40;;;3.63;;
3307;SDS011;1666;48.898;9.182;2022-09-23T12:37:22;4.68;;;3.47;;
3307;SDS011;1666;48.898;9.182;2022-09-23T12:39:57;8.98;;;3.10;;
3307;SDS011;1666;48.898;9.182;2022-09-23T12:42:30;6.30;;;2.80;;
3307;SDS011;1666;48.898;9.182;2022-09-23T12:48:03;4.75;;;2.70;;
3307;SDS011;1666;48.898;9.182;2022-09-23T12:50:55;3.63;;;2.38;;
3307;SDS011;1666;48.898;9.182;2022-09-23T12:59:31;4.90;;;2.08;;
3307;SDS011;1666;48.898;9.182;2022-09-23T13:02:24;5.70;;;2.85;;
3307;SDS011;1666;48.898;9.182;2022-09-23T13:05:02;7.10;;;3.28;;
3307;SDS011;1666;48.898;9.182;2022-09-23T13:08:02;3.83;;;2.90;;
3307;SDS011;1666;48.898;9.182;2022-09-23T13:10:37;4.47;;;2.72;;
3307;SDS011;1666;48.898;9.182;2022-09-23T13:13:14;3.03;;;2.60;;
3307;SDS011;1666;48.898;9.182;2022-09-23T13:15:50;3.92;;;2.80;;
3307;SDS011;1666;48.898;9.182;2022-09-23T13:18:21;4.45;;;2.88;;
3307;SDS011;1666;48.898;9.182;2022-09-23T13:20:55;5.30;;;3.00;;
3307;SDS011;1666;48.898;9.182;2022-09-23T13:23:25;7.80;;;3.58;;
3307;SDS011;1666;48.898;9.182;2022-09-23T13:25:58;4.68;;;3.30;;
3307;SDS011;1666;48.898;9.182;2022-09-23T13:28:30;3.85;;;3.40;;
3307;SDS011;1666;48.898;9.182;2022-09-23T13:31:03;8.88;;;5.25;;
3307;SDS011;1666;48.898;9.182;2022-09-23T13:33:37;3.78;;;2.92;;
3307;SDS011;1666;48.898;9.182;2022-09-23T13:36:14;8.35;;;4.15;;
3307;SDS011;1666;48.898;9.182;2022-09-23T13:38:45;4.35;;;3.25;;
3307;SDS011;1666;48.898;9.182;2022-09-23T13:41:15;6.05;;;3.72;;
3307;SDS011;1666;48.898;9.182;2022-09-23T13:43:48;4.18;;;3.63;;
3307;SDS011;1666;48.898;9.182;2022-09-23T13:46:24;6.30;;;3.85;;
3307;SDS011;1666;48.898;9.182;2022-09-23T13:48:56;6.00;;;3.85;;
3307;SDS011;1666;48.898;9.182;2022-09-23T13:51:31;5.22;;;3.78;;
3307;SDS011;1666;48.898;9.182;2022-09-23T13:54:03;6.43;;;3.97;;
3307;SDS011;1666;48.898;9.182;2022-09-23T13:56:33;5.15;;;3.72;;
3307;SDS011;1666;48.898;9.182;2022-09-23T13:59:10;6.82;;;3.90;;
3307;SDS011;1666;48.898;9.182;2022-09-23T14:02:00;10.65;;;4.47;;
3307;SDS011;1666;48.898;9.182;2022-09-23T14:04:31;6.50;;;4.22;;
3307;SDS011;1666;48.898;9.182;2022-09-23T14:07:05;6.40;;;3.92;;
3307;SDS011;1666;48.898;9.182;2022-09-23T14:09:36;5.10;;;4.32;;
3307;SDS011;1666;48.898;9.182;2022-09-23T14:12:09;8.03;;;4.03;;
3307;SDS011;1666;48.898;9.182;2022-09-23T14:14:39;6.13;;;4.05;;
3307;SDS011;1666;48.898;9.182;2022-09-23T14:17:12;6.22;;;3.92;;
3307;SDS011;1666;48.898;9.182;2022-09-23T14:19:45;3.70;;;3.30;;
3307;SDS011;1666;48.898;9.182;2022-09-23T14:22:25;5.75;;;3.65;;
3307;SDS011;1666;48.898;9.182;2022-09-23T14:24:56;6.85;;;4.07;;
3307;SDS011;1666;48.898;9.182;2022-09-23T14:27:29;6.30;;;4.18;;
3307;SDS011;1666;48.898;9.182;2022-09-23T14:30:02;9.05;;;3.50;;
3307;SDS011;1666;48.898;9.182;2022-09-23T14:32:33;5.90;;;3.90;;
3307;SDS011;1666;48.898;9.182;2022-09-23T14:35:04;5.40;;;3.42;;
3307;SDS011;1666;48.898;9.182;2022-09-23T14:37:46;7.97;;;3.38;;
3307;SDS011;1666;48.898;9.182;2022-09-23T14:40:31;6.53;;;4.05;;
3307;SDS011;1666;48.898;9.182;2022-09-23T14:43:03;6.90;;;3.92;;
3307;SDS011;1666;48.898;9.182;2022-09-23T14:45:42;5.03;;;3.40;;
3307;SDS011;1666;48.898;9.182;2022-09-23T14:48:16;5.18;;;3.20;;
3307;SDS011;1666;48.898;9.182;2022-09-23T14:50:51;5.40;;;3.67;;
3307;SDS011;1666;48.898;9.182;2022-09-23T14:53:31;4.05;;;3.53;;
3307;SDS011;1666;48.898;9.182;2022-09-23T14:56:06;5.38;;;2.70;;
3307;SDS011;1666;48.898;9.182;2022-09-23T14:58:49;8.43;;;3.58;;
3307;SDS011;1666;48.898;9.182;2022-09-23T15:04:10;4.15;;;3.15;;
3307;SDS011;1666;48.898;9.182;2022-09-23T15:06:44;4.57;;;3.45;;
3307;SDS011;1666;48.898;9.182;2022-09-23T15:09:23;3.90;;;3.20;;
3307;SDS011;1666;48.898;9.182;2022-09-23T15:11:58;4.78;;;3.50;;
3307;SDS011;1666;48.898;9.182;2022-09-23T15:14:32;7.03;;;3.15;;
3307;SDS011;1666;48.898;9.182;2022-09-23T15:17:17;6.65;;;3.00;;
3307;SDS011;1666;48.898;9.182;2022-09-23T15:19:58;6.57;;;2.90;;
3307;SDS011;1666;48.898;9.182;2022-09-23T15:22:31;4.35;;;3.22;;
3307;SDS011;1666;48.898;9.182;2022-09-23T15:25:16;6.35;;;3.63;;
3307;SDS011;1666;48.898;9.182;2022-09-23T15:27:54;5.13;;;3.15;;
3307;SDS011;1666;48.898;9.182;2022-09-23T15:30:33;5.65;;;3.80;;
3307;SDS011;1666;48.898;9.182;2022-09-23T15:33:03;4.82;;;3.53;;
3307;SDS011;1666;48.898;9.182;2022-09-23T15:35:34;6.30;;;3.42;;
3307;SDS011;1666;48.898;9.182;2022-09-23T15:38:04;4.60;;;3.20;;
3307;SDS011;1666;48.898;9.182;2022-09-23T15:40:37;4.53;;;3.65;;
3307;SDS011;1666;48.898;9.182;2022-09-23T15:43:09;6.10;;;3.33;;
3307;SDS011;1666;48.898;9.182;2022-09-23T15:45:47;5.80;;;3.65;;
3307;SDS011;1666;48.898;9.182;2022-09-23T15:48:19;8.65;;;3.42;;
3307;SDS011;1666;48.898;9.182;2022-09-23T15:50:52;7.72;;;3.80;;
3307;SDS011;1666;48.898;9.182;2022-09-23T15:53:26;5.00;;;2.90;;
3307;SDS011;1666;48.898;9.182;2022-09-23T15:55:59;4.03;;;3.05;;
3307;SDS011;1666;48.898;9.182;2022-09-23T15:58:29;4.95;;;3.20;;
3307;SDS011;1666;48.898;9.182;2022-09-23T16:00:59;4.75;;;2.75;;
3307;SDS011;1666;48.898;9.182;2022-09-23T16:03:29;4.75;;;2.90;;
3307;SDS011;1666;48.898;9.182;2022-09-23T16:06:00;6.35;;;3.15;;
3307;SDS011;1666;48.898;9.182;2022-09-23T16:08:31;4.38;;;3.13;;
3307;SDS011;1666;48.898;9.182;2022-09-23T16:11:03;7.97;;;3.60;;
3307;SDS011;1666;48.898;9.182;2022-09-23T16:13:34;6.13;;;3.55;;
3307;SDS011;1666;48.898;9.182;2022-09-23T16:16:04;5.82;;;3.53;;
3307;SDS011;1666;48.898;9.182;2022-09-23T16:18:34;5.93;;;3.20;;
3307;SDS011;1666;48.898;9.182;2022-09-23T16:21:04;4.03;;;3.22;;
3307;SDS011;1666;48.898;9.182;2022-09-23T16:23:34;4.07;;;2.80;;
3307;SDS011;1666;48.898;9.182;2022-09-23T16:26:15;3.30;;;2.70;;